sensor_id;sensor_type;location;lat;lon;timestamp;temperature;humidity
76168;DHT22;64927;48.214;16.378;2023-07-22T00:02:24;22.70;51.60
76168;DHT22;64927;48.214;16.378;2023-07-22T00:04:50;22.60;52.10
76168;DHT22;64927;48.214;16.378;2023-07-22T00:07:17;22.70;52.00
76168;DHT22;64927;48.214;16.378;2023-07-22T00:09:43;22.60;52.00
76168;DHT22;64927;48.214;16.378;2023-07-22T00:12:09;22.60;52.40
76168;DHT22;64927;48.214;16.378;2023-07-22T00:14:40;22.50;52.10
76168;DHT22;64927;48.214;16.378;2023-07-22T00:17:07;22.60;52.40
76168;DHT22;64927;48.214;16.378;2023-07-22T00:19:33;22.60;52.40
76168;DHT22;64927;48.214;16.378;2023-07-22T00:21:59;22.60;52.30
76168;DHT22;64927;48.214;16.378;2023-07-22T00:24:25;22.60;52.30
76168;DHT22;64927;48.214;16.378;2023-07-22T00:26:51;22.60;52.10
76168;DHT22;64927;48.214;16.378;2023-07-22T00:29:16;22.60;52.20
76168;DHT22;64927;48.214;16.378;2023-07-22T00:31:42;22.50;52.30
76168;DHT22;64927;48.214;16.378;2023-07-22T00:34:10;22.50;52.40
76168;DHT22;64927;48.214;16.378;2023-07-22T00:36:36;22.40;52.70
76168;DHT22;64927;48.214;16.378;2023-07-22T00:39:03;22.50;52.70
76168;DHT22;64927;48.214;16.378;2023-07-22T00:41:28;22.50;52.40
76168;DHT22;64927;48.214;16.378;2023-07-22T00:43:54;22.30;52.70
76168;DHT22;64927;48.214;16.378;2023-07-22T00:46:24;22.30;52.60
76168;DHT22;64927;48.214;16.378;2023-07-22T00:48:50;22.40;52.40
76168;DHT22;64927;48.214;16.378;2023-07-22T00:51:17;22.30;52.30
76168;DHT22;64927;48.214;16.378;2023-07-22T00:53:46;22.30;52.50
76168;DHT22;64927;48.214;16.378;2023-07-22T00:56:11;22.30;52.20
76168;DHT22;64927;48.214;16.378;2023-07-22T00:58:37;22.30;53.00
76168;DHT22;64927;48.214;16.378;2023-07-22T01:01:03;22.30;51.90
76168;DHT22;64927;48.214;16.378;2023-07-22T01:03:28;22.30;52.00
76168;DHT22;64927;48.214;16.378;2023-07-22T01:05:55;22.30;52.20
76168;DHT22;64927;48.214;16.378;2023-07-22T01:08:21;22.20;52.50
76168;DHT22;64927;48.214;16.378;2023-07-22T01:10:46;22.20;52.40
76168;DHT22;64927;48.214;16.378;2023-07-22T01:13:13;22.20;52.40
76168;DHT22;64927;48.214;16.378;2023-07-22T01:15:39;22.10;52.70
76168;DHT22;64927;48.214;16.378;2023-07-22T01:18:06;22.20;52.50
76168;DHT22;64927;48.214;16.378;2023-07-22T01:20:32;22.20;52.70
76168;DHT22;64927;48.214;16.378;2023-07-22T01:22:58;22.10;52.60
76168;DHT22;64927;48.214;16.378;2023-07-22T01:25:24;22.10;52.80
76168;DHT22;64927;48.214;16.378;2023-07-22T01:27:55;22.10;52.90
76168;DHT22;64927;48.214;16.378;2023-07-22T01:30:21;22.10;52.40
76168;DHT22;64927;48.214;16.378;2023-07-22T01:32:47;22.10;52.50
76168;DHT22;64927;48.214;16.378;2023-07-22T01:35:12;22.10;52.40
76168;DHT22;64927;48.214;16.378;2023-07-22T01:37:39;22.00;52.50
76168;DHT22;64927;48.214;16.378;2023-07-22T01:40:07;22.10;52.90
76168;DHT22;64927;48.214;16.378;2023-07-22T01:42:40;22.00;53.00
76168;DHT22;64927;48.214;16.378;2023-07-22T01:45:09;22.00;53.10
76168;DHT22;64927;48.214;16.378;2023-07-22T01:47:36;22.00;53.40
76168;DHT22;64927;48.214;16.378;2023-07-22T01:50:05;21.90;53.50
76168;DHT22;64927;48.214;16.378;2023-07-22T01:52:31;21.90;53.50
76168;DHT22;64927;48.214;16.378;2023-07-22T01:54:57;21.90;54.00
76168;DHT22;64927;48.214;16.378;2023-07-22T01:57:23;21.90;54.20
76168;DHT22;64927;48.214;16.378;2023-07-22T01:59:48;21.90;54.30
76168;DHT22;64927;48.214;16.378;2023-07-22T02:02:14;21.90;54.70
76168;DHT22;64927;48.214;16.378;2023-07-22T02:04:39;21.90;54.50
76168;DHT22;64927;48.214;16.378;2023-07-22T02:07:05;22.00;54.50
76168;DHT22;64927;48.214;16.378;2023-07-22T02:09:32;22.10;54.30
76168;DHT22;64927;48.214;16.378;2023-07-22T02:11:58;22.10;54.40
76168;DHT22;64927;48.214;16.378;2023-07-22T02:14:27;22.00;54.60
76168;DHT22;64927;48.214;16.378;2023-07-22T02:16:52;22.00;54.50
76168;DHT22;64927;48.214;16.378;2023-07-22T02:19:18;22.00;55.40
76168;DHT22;64927;48.214;16.378;2023-07-22T02:21:43;22.00;54.50
76168;DHT22;64927;48.214;16.378;2023-07-22T02:24:09;22.00;54.90
76168;DHT22;64927;48.214;16.378;2023-07-22T02:26:35;21.90;55.00
76168;DHT22;64927;48.214;16.378;2023-07-22T02:29:01;21.90;55.20
76168;DHT22;64927;48.214;16.378;2023-07-22T02:31:27;21.90;55.20
76168;DHT22;64927;48.214;16.378;2023-07-22T02:33:54;21.90;55.20
76168;DHT22;64927;48.214;16.378;2023-07-22T02:36:22;21.90;55.10
76168;DHT22;64927;48.214;16.378;2023-07-22T02:38:48;21.90;55.50
76168;DHT22;64927;48.214;16.378;2023-07-22T02:41:14;21.70;55.90
76168;DHT22;64927;48.214;16.378;2023-07-22T02:43:40;21.80;56.00
76168;DHT22;64927;48.214;16.378;2023-07-22T02:46:06;21.70;55.70
76168;DHT22;64927;48.214;16.378;2023-07-22T02:48:34;21.80;55.80
76168;DHT22;64927;48.214;16.378;2023-07-22T02:51:08;21.70;55.70
76168;DHT22;64927;48.214;16.378;2023-07-22T02:53:34;21.70;55.60
76168;DHT22;64927;48.214;16.378;2023-07-22T02:56:00;21.70;55.70
76168;DHT22;64927;48.214;16.378;2023-07-22T02:58:26;21.80;56.10
76168;DHT22;64927;48.214;16.378;2023-07-22T03:00:51;21.70;55.90
76168;DHT22;64927;48.214;16.378;2023-07-22T03:03:20;21.70;56.00
76168;DHT22;64927;48.214;16.378;2023-07-22T03:05:46;21.70;55.90
76168;DHT22;64927;48.214;16.378;2023-07-22T03:08:17;21.70;55.90
76168;DHT22;64927;48.214;16.378;2023-07-22T03:10:44;21.70;56.80
76168;DHT22;64927;48.214;16.378;2023-07-22T03:13:14;21.70;56.00
76168;DHT22;64927;48.214;16.378;2023-07-22T03:15:40;21.70;55.90
76168;DHT22;64927;48.214;16.378;2023-07-22T03:18:06;21.80;55.90
76168;DHT22;64927;48.214;16.378;2023-07-22T03:20:32;21.80;55.80
76168;DHT22;64927;48.214;16.378;2023-07-22T03:22:57;21.80;56.20
76168;DHT22;64927;48.214;16.378;2023-07-22T03:25:23;21.70;55.90
76168;DHT22;64927;48.214;16.378;2023-07-22T03:27:49;21.70;56.10
76168;DHT22;64927;48.214;16.378;2023-07-22T03:30:16;21.70;56.10
76168;DHT22;64927;48.214;16.378;2023-07-22T03:32:45;21.70;56.10
76168;DHT22;64927;48.214;16.378;2023-07-22T03:35:13;21.60;56.40
76168;DHT22;64927;48.214;16.378;2023-07-22T03:37:39;21.60;56.40
76168;DHT22;64927;48.214;16.378;2023-07-22T03:40:06;21.60;56.50
76168;DHT22;64927;48.214;16.378;2023-07-22T03:43:01;21.60;56.40
76168;DHT22;64927;48.214;16.378;2023-07-22T03:45:27;21.70;56.20
76168;DHT22;64927;48.214;16.378;2023-07-22T03:47:58;21.60;56.30
76168;DHT22;64927;48.214;16.378;2023-07-22T03:50:24;21.60;56.00
76168;DHT22;64927;48.214;16.378;2023-07-22T03:52:50;21.60;56.10
76168;DHT22;64927;48.214;16.378;2023-07-22T03:55:16;21.60;56.10
76168;DHT22;64927;48.214;16.378;2023-07-22T03:57:41;21.50;56.10
76168;DHT22;64927;48.214;16.378;2023-07-22T04:00:07;21.50;55.80
76168;DHT22;64927;48.214;16.378;2023-07-22T04:02:38;21.50;55.80
76168;DHT22;64927;48.214;16.378;2023-07-22T04:05:04;21.50;55.50
76168;DHT22;64927;48.214;16.378;2023-07-22T04:07:30;21.50;55.40
76168;DHT22;64927;48.214;16.378;2023-07-22T04:09:56;21.50;55.30
76168;DHT22;64927;48.214;16.378;2023-07-22T04:12:23;21.50;55.40
76168;DHT22;64927;48.214;16.378;2023-07-22T04:14:54;21.50;55.40
76168;DHT22;64927;48.214;16.378;2023-07-22T04:17:19;21.60;55.20
76168;DHT22;64927;48.214;16.378;2023-07-22T04:19:47;21.60;55.00
76168;DHT22;64927;48.214;16.378;2023-07-22T04:22:13;21.60;55.00
76168;DHT22;64927;48.214;16.378;2023-07-22T04:24:39;21.60;54.80
76168;DHT22;64927;48.214;16.378;2023-07-22T04:27:07;21.60;54.90
76168;DHT22;64927;48.214;16.378;2023-07-22T04:29:32;21.60;54.60
76168;DHT22;64927;48.214;16.378;2023-07-22T04:31:58;21.50;55.70
76168;DHT22;64927;48.214;16.378;2023-07-22T04:34:28;21.40;54.70
76168;DHT22;64927;48.214;16.378;2023-07-22T04:36:53;21.50;54.80
76168;DHT22;64927;48.214;16.378;2023-07-22T04:39:19;21.40;54.60
76168;DHT22;64927;48.214;16.378;2023-07-22T04:41:45;21.40;54.50
76168;DHT22;64927;48.214;16.378;2023-07-22T04:44:10;21.40;54.70
76168;DHT22;64927;48.214;16.378;2023-07-22T04:46:36;21.40;54.90
76168;DHT22;64927;48.214;16.378;2023-07-22T04:49:01;21.50;54.10
76168;DHT22;64927;48.214;16.378;2023-07-22T04:51:27;21.50;54.30
76168;DHT22;64927;48.214;16.378;2023-07-22T04:53:53;21.70;53.80
76168;DHT22;64927;48.214;16.378;2023-07-22T04:56:19;21.70;53.80
76168;DHT22;64927;48.214;16.378;2023-07-22T04:58:44;21.60;54.20
76168;DHT22;64927;48.214;16.378;2023-07-22T05:01:12;21.70;53.90
76168;DHT22;64927;48.214;16.378;2023-07-22T05:03:38;21.70;53.90
76168;DHT22;64927;48.214;16.378;2023-07-22T05:06:03;21.70;53.80
76168;DHT22;64927;48.214;16.378;2023-07-22T05:08:31;21.80;53.60
76168;DHT22;64927;48.214;16.378;2023-07-22T05:10:59;21.90;53.40
76168;DHT22;64927;48.214;16.378;2023-07-22T05:13:25;21.80;53.50
76168;DHT22;64927;48.214;16.378;2023-07-22T05:15:50;21.90;53.40
76168;DHT22;64927;48.214;16.378;2023-07-22T05:18:16;21.90;53.20
76168;DHT22;64927;48.214;16.378;2023-07-22T05:20:42;21.90;53.20
76168;DHT22;64927;48.214;16.378;2023-07-22T05:23:07;22.00;53.20
76168;DHT22;64927;48.214;16.378;2023-07-22T05:25:33;22.00;53.00
76168;DHT22;64927;48.214;16.378;2023-07-22T05:27:58;22.10;53.00
76168;DHT22;64927;48.214;16.378;2023-07-22T05:30:24;22.20;53.00
76168;DHT22;64927;48.214;16.378;2023-07-22T05:32:52;22.10;53.10
76168;DHT22;64927;48.214;16.378;2023-07-22T05:35:18;22.10;53.30
76168;DHT22;64927;48.214;16.378;2023-07-22T05:37:44;22.20;53.10
76168;DHT22;64927;48.214;16.378;2023-07-22T05:40:10;22.20;52.90
76168;DHT22;64927;48.214;16.378;2023-07-22T05:42:36;22.40;52.70
76168;DHT22;64927;48.214;16.378;2023-07-22T05:45:04;22.40;52.40
76168;DHT22;64927;48.214;16.378;2023-07-22T05:47:30;22.60;52.10
76168;DHT22;64927;48.214;16.378;2023-07-22T05:49:56;22.70;51.90
76168;DHT22;64927;48.214;16.378;2023-07-22T05:52:24;22.70;51.80
76168;DHT22;64927;48.214;16.378;2023-07-22T05:54:50;22.70;51.50
76168;DHT22;64927;48.214;16.378;2023-07-22T05:57:15;22.70;51.10
76168;DHT22;64927;48.214;16.378;2023-07-22T05:59:43;22.80;51.10
76168;DHT22;64927;48.214;16.378;2023-07-22T06:02:11;22.90;50.80
76168;DHT22;64927;48.214;16.378;2023-07-22T06:04:37;22.90;50.20
76168;DHT22;64927;48.214;16.378;2023-07-22T06:07:04;22.90;50.20
76168;DHT22;64927;48.214;16.378;2023-07-22T06:09:30;23.10;50.20
76168;DHT22;64927;48.214;16.378;2023-07-22T06:11:55;23.10;50.40
76168;DHT22;64927;48.214;16.378;2023-07-22T06:14:23;23.20;50.00
76168;DHT22;64927;48.214;16.378;2023-07-22T06:16:49;23.50;49.30
76168;DHT22;64927;48.214;16.378;2023-07-22T06:19:14;23.70;49.10
76168;DHT22;64927;48.214;16.378;2023-07-22T06:21:40;23.90;48.20
76168;DHT22;64927;48.214;16.378;2023-07-22T06:24:06;24.10;47.50
76168;DHT22;64927;48.214;16.378;2023-07-22T06:26:31;24.20;47.50
76168;DHT22;64927;48.214;16.378;2023-07-22T06:28:57;24.50;46.80
76168;DHT22;64927;48.214;16.378;2023-07-22T06:31:22;25.00;46.60
76168;DHT22;64927;48.214;16.378;2023-07-22T06:33:48;25.40;44.60
76168;DHT22;64927;48.214;16.378;2023-07-22T06:36:14;26.00;44.30
76168;DHT22;64927;48.214;16.378;2023-07-22T06:38:39;26.50;42.60
76168;DHT22;64927;48.214;16.378;2023-07-22T06:41:05;26.90;39.80
76168;DHT22;64927;48.214;16.378;2023-07-22T06:43:30;26.80;39.20
76168;DHT22;64927;48.214;16.378;2023-07-22T06:45:56;26.80;38.80
76168;DHT22;64927;48.214;16.378;2023-07-22T06:48:22;27.00;39.30
76168;DHT22;64927;48.214;16.378;2023-07-22T06:50:50;27.20;38.70
76168;DHT22;64927;48.214;16.378;2023-07-22T06:53:16;27.30;38.30
76168;DHT22;64927;48.214;16.378;2023-07-22T06:55:51;27.60;38.10
76168;DHT22;64927;48.214;16.378;2023-07-22T06:58:19;27.70;37.50
76168;DHT22;64927;48.214;16.378;2023-07-22T07:00:44;27.70;35.70
76168;DHT22;64927;48.214;16.378;2023-07-22T07:03:12;27.60;35.80
76168;DHT22;64927;48.214;16.378;2023-07-22T07:05:38;27.50;35.40
76168;DHT22;64927;48.214;16.378;2023-07-22T07:08:07;27.50;35.80
76168;DHT22;64927;48.214;16.378;2023-07-22T07:10:37;27.60;35.70
76168;DHT22;64927;48.214;16.378;2023-07-22T07:13:03;27.60;35.00
76168;DHT22;64927;48.214;16.378;2023-07-22T07:15:28;27.60;35.70
76168;DHT22;64927;48.214;16.378;2023-07-22T07:17:54;27.90;35.90
76168;DHT22;64927;48.214;16.378;2023-07-22T07:20:20;28.10;35.30
76168;DHT22;64927;48.214;16.378;2023-07-22T07:22:45;28.20;34.30
76168;DHT22;64927;48.214;16.378;2023-07-22T07:25:13;28.50;34.30
76168;DHT22;64927;48.214;16.378;2023-07-22T07:27:40;28.50;33.10
76168;DHT22;64927;48.214;16.378;2023-07-22T07:30:07;28.20;33.30
76168;DHT22;64927;48.214;16.378;2023-07-22T07:32:36;28.10;34.30
76168;DHT22;64927;48.214;16.378;2023-07-22T07:35:02;28.00;34.40
76168;DHT22;64927;48.214;16.378;2023-07-22T07:37:29;28.00;34.10
76168;DHT22;64927;48.214;16.378;2023-07-22T07:39:55;28.10;34.30
76168;DHT22;64927;48.214;16.378;2023-07-22T07:42:27;28.10;34.40
76168;DHT22;64927;48.214;16.378;2023-07-22T07:44:53;28.20;33.40
76168;DHT22;64927;48.214;16.378;2023-07-22T07:47:19;28.00;33.50
76168;DHT22;64927;48.214;16.378;2023-07-22T07:49:47;27.40;34.70
76168;DHT22;64927;48.214;16.378;2023-07-22T07:52:13;27.20;34.90
76168;DHT22;64927;48.214;16.378;2023-07-22T07:54:38;27.50;34.50
76168;DHT22;64927;48.214;16.378;2023-07-22T07:57:04;27.60;34.10
76168;DHT22;64927;48.214;16.378;2023-07-22T07:59:30;28.00;34.30
76168;DHT22;64927;48.214;16.378;2023-07-22T08:01:56;28.10;33.70
76168;DHT22;64927;48.214;16.378;2023-07-22T08:04:21;28.40;33.00
76168;DHT22;64927;48.214;16.378;2023-07-22T08:06:49;28.10;33.10
76168;DHT22;64927;48.214;16.378;2023-07-22T08:09:17;27.60;33.70
76168;DHT22;64927;48.214;16.378;2023-07-22T08:11:45;27.10;34.70
76168;DHT22;64927;48.214;16.378;2023-07-22T08:14:14;26.70;34.90
76168;DHT22;64927;48.214;16.378;2023-07-22T08:16:40;26.30;35.20
76168;DHT22;64927;48.214;16.378;2023-07-22T08:19:05;26.00;36.50
76168;DHT22;64927;48.214;16.378;2023-07-22T08:21:31;26.10;36.50
76168;DHT22;64927;48.214;16.378;2023-07-22T08:23:59;26.20;35.50
76168;DHT22;64927;48.214;16.378;2023-07-22T08:26:24;26.30;35.10
76168;DHT22;64927;48.214;16.378;2023-07-22T08:28:50;26.30;35.40
76168;DHT22;64927;48.214;16.378;2023-07-22T08:31:15;26.80;34.20
76168;DHT22;64927;48.214;16.378;2023-07-22T08:33:41;27.40;33.90
76168;DHT22;64927;48.214;16.378;2023-07-22T08:36:09;27.80;33.60
76168;DHT22;64927;48.214;16.378;2023-07-22T08:38:35;28.10;32.60
76168;DHT22;64927;48.214;16.378;2023-07-22T08:41:03;28.30;33.20
76168;DHT22;64927;48.214;16.378;2023-07-22T08:43:29;28.70;32.50
76168;DHT22;64927;48.214;16.378;2023-07-22T08:46:01;29.10;31.90
76168;DHT22;64927;48.214;16.378;2023-07-22T08:48:29;28.60;32.20
76168;DHT22;64927;48.214;16.378;2023-07-22T08:50:59;28.50;32.40
76168;DHT22;64927;48.214;16.378;2023-07-22T08:53:28;28.40;32.10
76168;DHT22;64927;48.214;16.378;2023-07-22T08:55:58;27.60;32.80
76168;DHT22;64927;48.214;16.378;2023-07-22T08:58:24;27.70;32.90
76168;DHT22;64927;48.214;16.378;2023-07-22T09:00:51;27.90;32.90
76168;DHT22;64927;48.214;16.378;2023-07-22T09:03:17;28.30;32.40
76168;DHT22;64927;48.214;16.378;2023-07-22T09:05:45;28.70;31.90
76168;DHT22;64927;48.214;16.378;2023-07-22T09:08:12;29.00;31.00
76168;DHT22;64927;48.214;16.378;2023-07-22T09:10:38;28.80;30.70
76168;DHT22;64927;48.214;16.378;2023-07-22T09:13:05;28.20;31.60
76168;DHT22;64927;48.214;16.378;2023-07-22T09:15:35;28.30;30.00
76168;DHT22;64927;48.214;16.378;2023-07-22T09:18:03;28.10;30.10
76168;DHT22;64927;48.214;16.378;2023-07-22T09:20:28;28.50;28.90
76168;DHT22;64927;48.214;16.378;2023-07-22T09:22:54;28.90;29.10
76168;DHT22;64927;48.214;16.378;2023-07-22T09:25:25;29.20;28.00
76168;DHT22;64927;48.214;16.378;2023-07-22T09:27:54;29.70;28.10
76168;DHT22;64927;48.214;16.378;2023-07-22T09:30:33;29.70;26.80
76168;DHT22;64927;48.214;16.378;2023-07-22T09:33:02;29.20;27.60
76168;DHT22;64927;48.214;16.378;2023-07-22T09:38:08;28.90;28.40
76168;DHT22;64927;48.214;16.378;2023-07-22T09:40:33;29.10;28.30
76168;DHT22;64927;48.214;16.378;2023-07-22T09:43:02;28.70;27.60
76168;DHT22;64927;48.214;16.378;2023-07-22T09:45:29;28.40;28.60
76168;DHT22;64927;48.214;16.378;2023-07-22T09:47:58;28.20;28.80
76168;DHT22;64927;48.214;16.378;2023-07-22T09:50:25;28.20;29.20
76168;DHT22;64927;48.214;16.378;2023-07-22T09:52:52;28.40;29.10
76168;DHT22;64927;48.214;16.378;2023-07-22T09:55:23;28.70;28.10
76168;DHT22;64927;48.214;16.378;2023-07-22T09:57:54;28.60;27.20
76168;DHT22;64927;48.214;16.378;2023-07-22T10:00:20;28.40;27.00
76168;DHT22;64927;48.214;16.378;2023-07-22T10:02:47;28.20;27.60
76168;DHT22;64927;48.214;16.378;2023-07-22T10:05:17;27.90;28.20
76168;DHT22;64927;48.214;16.378;2023-07-22T10:07:54;28.00;28.70
76168;DHT22;64927;48.214;16.378;2023-07-22T10:10:34;27.90;28.80
76168;DHT22;64927;48.214;16.378;2023-07-22T10:13:03;28.20;29.60
76168;DHT22;64927;48.214;16.378;2023-07-22T10:15:30;28.40;29.50
76168;DHT22;64927;48.214;16.378;2023-07-22T10:17:58;28.80;29.30
76168;DHT22;64927;48.214;16.378;2023-07-22T10:20:28;29.20;29.80
76168;DHT22;64927;48.214;16.378;2023-07-22T10:22:55;29.30;28.40
76168;DHT22;64927;48.214;16.378;2023-07-22T10:25:24;29.30;28.30
76168;DHT22;64927;48.214;16.378;2023-07-22T10:27:54;29.40;28.20
76168;DHT22;64927;48.214;16.378;2023-07-22T10:30:20;29.40;28.20
76168;DHT22;64927;48.214;16.378;2023-07-22T10:32:51;29.40;28.00
76168;DHT22;64927;48.214;16.378;2023-07-22T10:35:39;29.40;28.20
76168;DHT22;64927;48.214;16.378;2023-07-22T10:38:13;29.30;28.60
76168;DHT22;64927;48.214;16.378;2023-07-22T10:40:53;29.50;28.50
76168;DHT22;64927;48.214;16.378;2023-07-22T10:43:39;28.80;27.90
76168;DHT22;64927;48.214;16.378;2023-07-22T10:46:10;28.50;28.40
76168;DHT22;64927;48.214;16.378;2023-07-22T10:48:38;28.50;27.90
76168;DHT22;64927;48.214;16.378;2023-07-22T10:51:07;28.60;27.90
76168;DHT22;64927;48.214;16.378;2023-07-22T10:53:36;28.80;27.90
76168;DHT22;64927;48.214;16.378;2023-07-22T11:14:29;28.50;27.90
76168;DHT22;64927;48.214;16.378;2023-07-22T11:16:57;27.90;28.50
76168;DHT22;64927;48.214;16.378;2023-07-22T11:19:26;27.80;29.00
76168;DHT22;64927;48.214;16.378;2023-07-22T11:21:54;28.10;29.10
76168;DHT22;64927;48.214;16.378;2023-07-22T11:24:22;28.40;28.90
76168;DHT22;64927;48.214;16.378;2023-07-22T11:26:48;28.50;28.30
76168;DHT22;64927;48.214;16.378;2023-07-22T11:29:15;28.60;28.60
76168;DHT22;64927;48.214;16.378;2023-07-22T11:31:42;28.90;28.20
76168;DHT22;64927;48.214;16.378;2023-07-22T11:34:10;29.20;28.50
76168;DHT22;64927;48.214;16.378;2023-07-22T11:36:35;29.60;27.90
76168;DHT22;64927;48.214;16.378;2023-07-22T11:39:09;29.70;28.10
76168;DHT22;64927;48.214;16.378;2023-07-22T11:41:40;29.60;28.30
76168;DHT22;64927;48.214;16.378;2023-07-22T11:44:11;29.40;28.10
76168;DHT22;64927;48.214;16.378;2023-07-22T11:46:58;29.40;27.90
76168;DHT22;64927;48.214;16.378;2023-07-22T11:51:57;29.40;27.50
76168;DHT22;64927;48.214;16.378;2023-07-22T11:54:24;29.40;28.10
76168;DHT22;64927;48.214;16.378;2023-07-22T11:56:49;29.50;28.10
76168;DHT22;64927;48.214;16.378;2023-07-22T11:59:15;29.60;27.40
76168;DHT22;64927;48.214;16.378;2023-07-22T12:01:44;29.80;27.00
76168;DHT22;64927;48.214;16.378;2023-07-22T12:04:12;29.50;27.80
76168;DHT22;64927;48.214;16.378;2023-07-22T12:06:39;29.10;27.80
76168;DHT22;64927;48.214;16.378;2023-07-22T12:09:04;29.00;28.10
76168;DHT22;64927;48.214;16.378;2023-07-22T12:11:34;29.10;28.20
76168;DHT22;64927;48.214;16.378;2023-07-22T12:14:13;29.40;27.70
76168;DHT22;64927;48.214;16.378;2023-07-22T12:16:42;29.40;27.30
76168;DHT22;64927;48.214;16.378;2023-07-22T12:19:08;29.30;28.40
76168;DHT22;64927;48.214;16.378;2023-07-22T12:21:35;29.30;27.90
76168;DHT22;64927;48.214;16.378;2023-07-22T12:24:01;29.40;27.00
76168;DHT22;64927;48.214;16.378;2023-07-22T12:26:29;29.50;27.80
76168;DHT22;64927;48.214;16.378;2023-07-22T12:28:55;29.80;27.10
76168;DHT22;64927;48.214;16.378;2023-07-22T12:31:20;29.80;27.20
76168;DHT22;64927;48.214;16.378;2023-07-22T12:33:46;30.00;27.50
76168;DHT22;64927;48.214;16.378;2023-07-22T12:36:12;30.20;26.60
76168;DHT22;64927;48.214;16.378;2023-07-22T12:38:37;30.40;25.90
76168;DHT22;64927;48.214;16.378;2023-07-22T12:41:03;30.00;26.40
76168;DHT22;64927;48.214;16.378;2023-07-22T12:43:30;30.00;26.70
76168;DHT22;64927;48.214;16.378;2023-07-22T12:45:58;30.10;26.40
76168;DHT22;64927;48.214;16.378;2023-07-22T12:48:23;29.80;26.70
76168;DHT22;64927;48.214;16.378;2023-07-22T12:50:52;30.00;26.90
76168;DHT22;64927;48.214;16.378;2023-07-22T12:53:17;29.90;26.70
76168;DHT22;64927;48.214;16.378;2023-07-22T12:55:43;29.70;26.90
76168;DHT22;64927;48.214;16.378;2023-07-22T12:58:11;29.80;26.40
76168;DHT22;64927;48.214;16.378;2023-07-22T13:00:39;29.40;26.90
76168;DHT22;64927;48.214;16.378;2023-07-22T13:03:06;30.00;26.30
76168;DHT22;64927;48.214;16.378;2023-07-22T13:05:32;29.90;25.10
76168;DHT22;64927;48.214;16.378;2023-07-22T13:07:57;29.80;25.30
76168;DHT22;64927;48.214;16.378;2023-07-22T13:10:29;30.00;25.10
76168;DHT22;64927;48.214;16.378;2023-07-22T13:12:59;30.00;25.30
76168;DHT22;64927;48.214;16.378;2023-07-22T13:15:25;30.20;25.20
76168;DHT22;64927;48.214;16.378;2023-07-22T13:17:53;30.30;25.30
76168;DHT22;64927;48.214;16.378;2023-07-22T13:20:18;30.50;24.50
76168;DHT22;64927;48.214;16.378;2023-07-22T13:22:46;30.50;24.50
76168;DHT22;64927;48.214;16.378;2023-07-22T13:25:12;30.30;24.70
76168;DHT22;64927;48.214;16.378;2023-07-22T13:27:37;30.30;24.70
76168;DHT22;64927;48.214;16.378;2023-07-22T13:30:12;29.90;25.30
76168;DHT22;64927;48.214;16.378;2023-07-22T13:32:39;30.00;25.10
76168;DHT22;64927;48.214;16.378;2023-07-22T13:35:05;30.00;25.40
76168;DHT22;64927;48.214;16.378;2023-07-22T13:37:30;29.90;24.80
76168;DHT22;64927;48.214;16.378;2023-07-22T13:39:56;30.00;24.80
76168;DHT22;64927;48.214;16.378;2023-07-22T13:42:23;30.10;24.50
76168;DHT22;64927;48.214;16.378;2023-07-22T13:44:49;30.30;24.80
76168;DHT22;64927;48.214;16.378;2023-07-22T13:47:15;30.40;24.10
76168;DHT22;64927;48.214;16.378;2023-07-22T13:49:40;30.40;24.20
76168;DHT22;64927;48.214;16.378;2023-07-22T13:52:06;30.40;24.40
76168;DHT22;64927;48.214;16.378;2023-07-22T13:54:32;30.30;24.30
76168;DHT22;64927;48.214;16.378;2023-07-22T13:56:59;30.10;25.20
76168;DHT22;64927;48.214;16.378;2023-07-22T13:59:25;30.00;24.70
76168;DHT22;64927;48.214;16.378;2023-07-22T14:01:51;30.10;24.80
76168;DHT22;64927;48.214;16.378;2023-07-22T14:04:16;30.00;24.40
76168;DHT22;64927;48.214;16.378;2023-07-22T14:06:42;30.10;24.40
76168;DHT22;64927;48.214;16.378;2023-07-22T14:09:07;29.90;24.40
76168;DHT22;64927;48.214;16.378;2023-07-22T14:11:35;29.90;24.90
76168;DHT22;64927;48.214;16.378;2023-07-22T14:14:03;29.90;25.00
76168;DHT22;64927;48.214;16.378;2023-07-22T14:16:29;30.00;24.60
76168;DHT22;64927;48.214;16.378;2023-07-22T14:18:54;30.00;24.90
76168;DHT22;64927;48.214;16.378;2023-07-22T14:21:20;30.00;24.90
76168;DHT22;64927;48.214;16.378;2023-07-22T14:23:46;30.10;24.50
76168;DHT22;64927;48.214;16.378;2023-07-22T14:26:11;29.70;24.40
76168;DHT22;64927;48.214;16.378;2023-07-22T14:28:37;29.70;24.60
76168;DHT22;64927;48.214;16.378;2023-07-22T14:31:03;29.80;24.50
76168;DHT22;64927;48.214;16.378;2023-07-22T14:33:29;29.70;24.60
76168;DHT22;64927;48.214;16.378;2023-07-22T14:35:55;29.50;24.70
76168;DHT22;64927;48.214;16.378;2023-07-22T14:38:22;29.50;25.00
76168;DHT22;64927;48.214;16.378;2023-07-22T14:40:48;29.60;25.30
76168;DHT22;64927;48.214;16.378;2023-07-22T14:43:13;29.70;25.10
76168;DHT22;64927;48.214;16.378;2023-07-22T14:45:42;29.70;25.00
76168;DHT22;64927;48.214;16.378;2023-07-22T14:48:07;29.70;25.40
76168;DHT22;64927;48.214;16.378;2023-07-22T14:50:33;29.80;24.50
76168;DHT22;64927;48.214;16.378;2023-07-22T14:52:59;29.80;24.60
76168;DHT22;64927;48.214;16.378;2023-07-22T14:55:28;29.80;24.80
76168;DHT22;64927;48.214;16.378;2023-07-22T14:57:54;29.90;24.90
76168;DHT22;64927;48.214;16.378;2023-07-22T15:00:20;30.00;25.30
76168;DHT22;64927;48.214;16.378;2023-07-22T15:02:47;30.30;24.90
76168;DHT22;64927;48.214;16.378;2023-07-22T15:05:13;30.50;24.50
76168;DHT22;64927;48.214;16.378;2023-07-22T15:07:38;30.40;24.50
76168;DHT22;64927;48.214;16.378;2023-07-22T15:10:07;30.20;24.90
76168;DHT22;64927;48.214;16.378;2023-07-22T15:12:32;30.30;24.50
76168;DHT22;64927;48.214;16.378;2023-07-22T15:14:58;30.30;24.90
76168;DHT22;64927;48.214;16.378;2023-07-22T15:17:26;30.00;24.70
76168;DHT22;64927;48.214;16.378;2023-07-22T15:19:52;30.10;24.80
76168;DHT22;64927;48.214;16.378;2023-07-22T15:22:17;30.00;24.90
76168;DHT22;64927;48.214;16.378;2023-07-22T15:24:43;29.90;25.20
76168;DHT22;64927;48.214;16.378;2023-07-22T15:27:09;29.80;25.30
76168;DHT22;64927;48.214;16.378;2023-07-22T15:29:34;29.70;25.50
76168;DHT22;64927;48.214;16.378;2023-07-22T15:32:00;29.60;25.80
76168;DHT22;64927;48.214;16.378;2023-07-22T15:34:27;29.50;25.90
76168;DHT22;64927;48.214;16.378;2023-07-22T15:36:53;29.50;25.70
76168;DHT22;64927;48.214;16.378;2023-07-22T15:39:19;29.30;26.20